Time;durP1;ratioP1;P1;durP2;ratioP2;P2;SDS_P1;SDS_P2;PMS_P1;PMS_P2;Temp;Humidity;BMP_temperature;BMP_pressure;BME280_temperature;BME280_humidity;BME280_pressure;Samples;Min_cycle;Max_cycle;Signal;HPM_P1;HPM_P2
2023/06/20 00:00:29;;;;;;;1.73;1.50;;;23.80;99.90;;;;;;5075057;28;20428;-58
2023/06/20 00:02:56;;;;;;;2.55;1.50;;;23.80;99.90;;;;;;5075387;28;20457;-58
2023/06/20 00:05:23;;;;;;;2.00;1.50;;;23.80;99.90;;;;;;5073607;28;20442;-59
2023/06/20 00:07:52;;;;;;;1.58;1.20;;;23.80;1.00;;;;;;5073552;28;20673;-59
2023/06/20 00:10:21;;;;;;;1.98;1.20;;;23.70;1.00;;;;;;5073033;28;20481;-58
2023/06/20 00:12:48;;;;;;;1.60;1.30;;;23.80;1.00;;;;;;5073908;28;20700;-58
2023/06/20 00:15:15;;;;;;;1.90;1.50;;;23.80;1.00;;;;;;5073859;28;20838;-57
2023/06/20 00:17:42;;;;;;;1.67;1.40;;;23.90;99.90;;;;;;5073824;28;20904;-58
2023/06/20 00:20:10;;;;;;;2.00;1.60;;;23.70;1.00;;;;;;5074404;28;20744;-59
2023/06/20 00:22:37;;;;;;;2.28;1.60;;;23.60;1.00;;;;;;5074864;28;20450;-58
2023/06/20 00:25:04;;;;;;;1.52;1.40;;;23.70;1.00;;;;;;5074080;28;20485;-57
2023/06/20 00:27:32;;;;;;;1.80;1.23;;;23.60;1.00;;;;;;5075083;28;20454;-58
2023/06/20 00:29:59;;;;;;;2.00;1.30;;;23.60;99.90;;;;;;5074994;28;20777;-58
2023/06/20 00:32:27;;;;;;;1.60;1.27;;;23.60;99.90;;;;;;5074800;28;20431;-58
2023/06/20 00:34:58;;;;;;;1.70;1.20;;;23.60;1.00;;;;;;5074737;28;20430;-58
2023/06/20 00:37:25;;;;;;;1.60;1.40;;;23.60;99.90;;;;;;5074508;28;20438;-58
2023/06/20 00:39:52;;;;;;;2.00;1.00;;;23.50;99.90;;;;;;5076865;28;20435;-58
2023/06/20 00:42:20;;;;;;;3.60;1.20;;;23.50;99.90;;;;;;5081934;28;20870;-57
2023/06/20 00:44:48;;;;;;;4.50;1.30;;;23.50;33.30;;;;;;5081266;28;20431;-54
2023/06/20 00:47:17;;;;;;;1.80;1.60;;;23.20;99.90;;;;;;5081351;28;20525;-55
2023/06/20 00:49:46;;;;;;;2.47;1.40;;;22.70;1.00;;;;;;5080406;28;20491;-49
2023/06/20 00:52:14;;;;;;;2.00;1.30;;;22.40;1.00;;;;;;5079860;28;20429;-50
2023/06/20 00:54:44;;;;;;;2.20;1.40;;;22.20;1.00;;;;;;5080868;28;20419;-51
2023/06/20 00:57:13;;;;;;;2.60;1.80;;;22.10;1.00;;;;;;5081199;28;20495;-50
2023/06/20 00:59:43;;;;;;;2.53;1.77;;;22.10;1.00;;;;;;5080623;28;20435;-53
2023/06/20 01:02:13;;;;;;;2.95;1.40;;;22.10;18.40;;;;;;5081042;28;20435;-55
2023/06/20 01:04:42;;;;;;;3.40;1.60;;;21.80;37.00;;;;;;5080579;28;20431;-52
2023/06/20 01:07:15;;;;;;;1.70;1.40;;;21.90;42.40;;;;;;5079163;28;20847;-49
2023/06/20 01:09:52;;;;;;;2.20;1.50;;;22.00;17.70;;;;;;5080164;28;20423;-49
2023/06/20 01:12:27;;;;;;;2.10;1.60;;;21.70;60.30;;;;;;5080729;28;20431;-51
2023/06/20 01:15:00;;;;;;;2.13;1.40;;;21.50;52.10;;;;;;5080313;28;20434;-54
2023/06/20 01:17:37;;;;;;;1.80;1.40;;;21.40;96.20;;;;;;5080064;28;20449;-54
2023/06/20 01:20:12;;;;;;;2.50;1.40;;;21.40;89.70;;;;;;5077338;28;20475;-53
2023/06/20 01:22:57;;;;;;;2.40;1.40;;;21.40;99.90;;;;;;5081284;28;20525;-50
2023/06/20 01:25:33;;;;;;;2.00;1.30;;;21.10;99.90;;;;;;5080676;28;21053;-51
2023/06/20 01:28:07;;;;;;;1.90;1.40;;;20.80;99.90;;;;;;5081040;28;20412;-51
2023/06/20 01:30:42;;;;;;;2.00;1.20;;;21.00;99.90;;;;;;5080665;28;20777;-50
2023/06/20 01:33:11;;;;;;;3.05;1.10;;;20.80;99.90;;;;;;5080449;28;20427;-51
2023/06/20 01:35:39;;;;;;;2.40;1.10;;;20.70;99.90;;;;;;5081157;28;20434;-47
2023/06/20 01:38:10;;;;;;;1.70;1.10;;;20.70;99.90;;;;;;5080991;28;20896;-50
2023/06/20 01:40:38;;;;;;;2.20;1.10;;;20.90;99.90;;;;;;5080663;28;20762;-49
2023/06/20 01:43:07;;;;;;;1.63;1.10;;;20.70;99.90;;;;;;5081122;28;20520;-52
2023/06/20 01:45:39;;;;;;;1.63;1.10;;;20.50;99.90;;;;;;5080458;28;20498;-49
2023/06/20 01:48:09;;;;;;;1.60;1.10;;;20.30;99.90;;;;;;5081406;28;20427;-52
2023/06/20 01:50:38;;;;;;;1.40;1.10;;;20.40;99.90;;;;;;5080669;28;20499;-51
2023/06/20 01:53:07;;;;;;;2.50;1.10;;;20.30;99.90;;;;;;5077230;28;20428;-49
2023/06/20 01:55:41;;;;;;;2.10;1.00;;;20.30;99.90;;;;;;5077290;28;20471;-51
2023/06/20 01:58:10;;;;;;;1.80;1.05;;;20.30;99.90;;;;;;5077203;28;20438;-53
2023/06/20 02:00:38;;;;;;;2.30;1.10;;;20.50;99.90;;;;;;5077228;28;20459;-50
2023/06/20 02:03:06;;;;;;;1.40;1.10;;;20.70;99.90;;;;;;5077358;28;20423;-49
2023/06/20 02:05:35;;;;;;;1.50;1.10;;;20.60;99.90;;;;;;5077437;28;20427;-51
2023/06/20 02:08:02;;;;;;;2.10;1.10;;;20.50;99.90;;;;;;5077196;28;20805;-51
2023/06/20 02:10:30;;;;;;;1.77;1.00;;;20.50;99.90;;;;;;5076746;28;20432;-49
2023/06/20 02:12:59;;;;;;;1.48;1.15;;;20.40;99.90;;;;;;5076038;28;20892;-51
2023/06/20 02:15:27;;;;;;;1.33;1.00;;;20.40;99.90;;;;;;5077117;28;20481;-50
2023/06/20 02:17:55;;;;;;;2.25;1.10;;;20.40;99.90;;;;;;5077237;28;20489;-47
2023/06/20 02:20:23;;;;;;;1.80;1.00;;;20.60;99.90;;;;;;5076202;28;20439;-49
2023/06/20 02:22:51;;;;;;;1.88;1.00;;;20.50;99.90;;;;;;5076984;28;20435;-50
2023/06/20 02:25:22;;;;;;;1.23;1.00;;;20.50;99.90;;;;;;5075990;28;20423;-47
2023/06/20 02:27:51;;;;;;;1.30;1.00;;;20.40;99.90;;;;;;5076001;28;20411;-51
2023/06/20 02:30:21;;;;;;;1.75;0.90;;;20.30;99.90;;;;;;5076614;28;20423;-49
2023/06/20 02:32:49;;;;;;;1.80;1.00;;;20.30;99.90;;;;;;5076643;28;20439;-50
2023/06/20 02:35:18;;;;;;;1.30;0.90;;;20.30;99.90;;;;;;5076187;28;20442;-50
2023/06/20 02:37:46;;;;;;;1.30;1.00;;;20.20;99.90;;;;;;5076131;28;20823;-54
2023/06/20 02:40:13;;;;;;;1.40;1.10;;;20.40;99.90;;;;;;5075072;28;20428;-50
2023/06/20 02:42:40;;;;;;;1.48;1.00;;;20.40;99.90;;;;;;5076188;28;20419;-52
2023/06/20 02:45:09;;;;;;;1.40;1.00;;;20.50;99.90;;;;;;5074769;28;20443;-48
2023/06/20 02:47:48;;;;;;;1.13;0.90;;;20.60;99.90;;;;;;5076383;28;20429;-51
2023/06/20 02:50:21;;;;;;;1.30;1.00;;;20.60;99.90;;;;;;5076728;28;20426;-51
2023/06/20 02:53:00;;;;;;;1.30;0.90;;;20.70;99.90;;;;;;5076550;28;20493;-52
2023/06/20 02:55:38;;;;;;;2.22;1.30;;;20.50;99.90;;;;;;5075720;28;20431;-51
2023/06/20 02:58:13;;;;;;;1.60;1.00;;;20.40;99.90;;;;;;5075976;28;20770;-49
2023/06/20 03:00:44;;;;;;;1.40;1.00;;;20.30;99.90;;;;;;5075528;28;20439;-52
2023/06/20 03:03:16;;;;;;;1.92;1.00;;;20.20;99.90;;;;;;5075008;28;20477;-52
2023/06/20 03:05:44;;;;;;;1.30;1.00;;;20.20;99.90;;;;;;5075755;28;20427;-53
2023/06/20 03:08:14;;;;;;;2.33;1.20;;;20.20;99.90;;;;;;5076034;28;20427;-51
2023/06/20 03:10:42;;;;;;;1.25;1.00;;;20.20;99.90;;;;;;5074828;28;20458;-48
2023/06/20 03:13:13;;;;;;;1.88;0.90;;;20.20;99.90;;;;;;5073498;28;20502;-52
2023/06/20 03:15:40;;;;;;;1.63;0.90;;;20.20;99.90;;;;;;5075207;28;20427;-51
2023/06/20 03:18:08;;;;;;;1.70;1.00;;;20.10;99.90;;;;;;5074351;28;20493;-48
2023/06/20 03:20:36;;;;;;;1.40;1.00;;;20.20;99.90;;;;;;5074808;28;20435;-52
2023/06/20 03:23:03;;;;;;;2.00;0.90;;;20.20;99.90;;;;;;5074630;28;20423;-52
2023/06/20 03:25:30;;;;;;;1.30;1.00;;;20.30;99.90;;;;;;5072574;28;20428;-51
2023/06/20 03:27:57;;;;;;;1.90;1.10;;;20.20;99.90;;;;;;5072747;28;20423;-52
2023/06/20 03:30:24;;;;;;;1.50;1.00;;;20.20;99.90;;;;;;5072963;28;20478;-54
2023/06/20 03:32:51;;;;;;;1.90;1.00;;;20.00;99.90;;;;;;5072508;28;20481;-50
2023/06/20 03:35:18;;;;;;;1.30;1.00;;;19.90;99.90;;;;;;5073293;28;20431;-54
2023/06/20 03:37:46;;;;;;;1.30;0.90;;;20.00;99.90;;;;;;5073696;28;20427;-53
2023/06/20 03:40:13;;;;;;;1.70;1.10;;;20.10;99.90;;;;;;5074790;28;20432;-54
2023/06/20 03:42:41;;;;;;;1.30;1.00;;;20.00;99.90;;;;;;5075149;28;20423;-53
2023/06/20 03:45:09;;;;;;;1.20;1.00;;;20.10;99.90;;;;;;5074784;28;20878;-54
2023/06/20 03:47:35;;;;;;;1.40;1.00;;;20.10;99.90;;;;;;5074606;28;20473;-52
2023/06/20 03:50:02;;;;;;;1.90;1.10;;;20.10;99.90;;;;;;5074960;28;20427;-51
2023/06/20 03:52:29;;;;;;;1.48;1.08;;;20.00;99.90;;;;;;5074570;28;20782;-53
2023/06/20 03:54:58;;;;;;;1.40;1.00;;;20.00;99.90;;;;;;5074539;28;20905;-51
2023/06/20 03:57:25;;;;;;;2.00;1.00;;;20.00;99.90;;;;;;5074790;28;20431;-52
2023/06/20 03:59:52;;;;;;;1.40;1.10;;;19.90;99.90;;;;;;5074605;28;20431;-54
2023/06/20 04:02:19;;;;;;;1.80;1.00;;;19.90;99.90;;;;;;5075323;28;20435;-56
2023/06/20 04:04:49;;;;;;;2.03;1.00;;;19.90;99.90;;;;;;5075002;28;20840;-56
2023/06/20 04:07:18;;;;;;;1.20;0.90;;;19.80;99.90;;;;;;5073097;28;20644;-56
2023/06/20 04:09:45;;;;;;;1.90;1.00;;;19.80;99.90;;;;;;5073816;28;20855;-56
2023/06/20 04:12:14;;;;;;;1.45;0.95;;;19.90;99.90;;;;;;5073924;28;20431;-56
2023/06/20 04:14:41;;;;;;;1.50;0.90;;;19.90;99.90;;;;;;5071525;28;20851;-56
2023/06/20 04:17:08;;;;;;;1.20;0.90;;;19.90;99.90;;;;;;5072619;28;20921;-56
2023/06/20 04:19:36;;;;;;;1.40;0.98;;;20.00;99.90;;;;;;5073037;28;20782;-54
2023/06/20 04:22:03;;;;;;;1.50;1.10;;;20.00;99.90;;;;;;5073577;28;20432;-56
2023/06/20 04:24:30;;;;;;;1.33;0.90;;;20.00;99.90;;;;;;5073867;28;20854;-56
2023/06/20 04:26:56;;;;;;;1.40;0.90;;;19.90;99.90;;;;;;5074429;28;20904;-56
2023/06/20 04:29:29;;;;;;;1.30;0.90;;;19.80;99.90;;;;;;5074815;28;20431;-56
2023/06/20 04:31:56;;;;;;;1.20;0.90;;;19.80;99.90;;;;;;5074288;28;20470;-56
2023/06/20 04:34:24;;;;;;;1.70;0.88;;;19.90;99.90;;;;;;5074708;28;20782;-56
2023/06/20 04:36:51;;;;;;;1.70;1.00;;;19.90;99.90;;;;;;5074794;28;20473;-54
2023/06/20 04:39:18;;;;;;;1.23;0.90;;;20.00;99.90;;;;;;5074263;28;20496;-56
2023/06/20 04:41:45;;;;;;;1.20;0.90;;;20.00;99.90;;;;;;5073171;28;20435;-57
2023/06/20 04:44:12;;;;;;;3.23;1.10;;;20.00;99.90;;;;;;5073432;28;20432;-57
2023/06/20 04:46:40;;;;;;;1.90;0.95;;;20.00;99.90;;;;;;5073184;28;20435;-55
2023/06/20 04:49:07;;;;;;;1.30;1.00;;;20.10;99.90;;;;;;5073255;28;20419;-55
2023/06/20 04:51:34;;;;;;;2.25;1.00;;;20.10;99.90;;;;;;5071784;28;20420;-58
2023/06/20 04:54:01;;;;;;;1.67;0.90;;;20.20;99.90;;;;;;5073698;28;20426;-58
2023/06/20 04:56:28;;;;;;;1.40;1.00;;;20.10;99.90;;;;;;5073571;28;20493;-58
2023/06/20 04:58:59;;;;;;;2.10;1.00;;;20.30;99.90;;;;;;5074078;28;20427;-58
2023/06/20 05:01:26;;;;;;;1.50;1.00;;;20.30;99.90;;;;;;5072932;28;21056;-58
2023/06/20 05:03:54;;;;;;;1.20;0.90;;;20.30;99.90;;;;;;5073426;28;20709;-58
2023/06/20 05:06:21;;;;;;;1.30;0.90;;;20.30;99.90;;;;;;5071153;28;20570;-59
2023/06/20 05:08:48;;;;;;;2.58;1.00;;;20.30;99.90;;;;;;5071675;28;20481;-55
2023/06/20 05:11:15;;;;;;;1.42;0.90;;;20.40;99.90;;;;;;5070764;28;20431;-56
2023/06/20 05:13:42;;;;;;;2.30;0.90;;;20.40;99.90;;;;;;5069206;28;20454;-55
2023/06/20 05:16:09;;;;;;;1.20;0.90;;;20.60;99.90;;;;;;5070047;28;20419;-56
2023/06/20 05:18:36;;;;;;;1.10;0.80;;;20.50;99.90;;;;;;5071642;28;20412;-58
2023/06/20 05:21:04;;;;;;;1.15;0.80;;;20.60;99.90;;;;;;5071058;28;20435;-54
2023/06/20 05:23:32;;;;;;;1.52;0.80;;;20.60;99.90;;;;;;5071186;28;20431;-56
2023/06/20 05:25:59;;;;;;;3.25;0.90;;;20.60;99.90;;;;;;5072223;28;20432;-57
2023/06/20 05:28:26;;;;;;;1.70;0.90;;;20.80;99.90;;;;;;5075962;28;20427;-55
2023/06/20 05:30:53;;;;;;;1.40;0.98;;;20.80;99.90;;;;;;5074399;28;20724;-55
2023/06/20 05:33:20;;;;;;;1.20;0.90;;;20.90;99.90;;;;;;5074303;28;20427;-57
2023/06/20 05:35:47;;;;;;;1.27;0.82;;;20.90;99.90;;;;;;5074017;28;20941;-58
2023/06/20 05:38:15;;;;;;;1.50;0.80;;;20.90;99.90;;;;;;5075477;28;20431;-55
2023/06/20 05:40:43;;;;;;;1.20;0.85;;;21.10;99.90;;;;;;5075535;28;20490;-55
2023/06/20 05:43:10;;;;;;;1.85;0.80;;;21.20;99.90;;;;;;5076038;28;20476;-56
2023/06/20 05:45:37;;;;;;;1.65;0.80;;;21.30;99.90;;;;;;5075895;28;20468;-54
2023/06/20 05:48:04;;;;;;;1.40;0.80;;;21.30;99.90;;;;;;5076468;28;20512;-56
2023/06/20 05:50:32;;;;;;;1.60;0.80;;;21.30;99.90;;;;;;5075098;28;20457;-54
2023/06/20 05:53:00;;;;;;;1.70;0.90;;;21.20;99.90;;;;;;5074014;28;20666;-52
2023/06/20 05:55:28;;;;;;;1.65;0.70;;;21.30;99.90;;;;;;5075170;28;20508;-55
2023/06/20 05:57:55;;;;;;;1.25;0.77;;;21.50;99.90;;;;;;5076464;28;20426;-54
2023/06/20 06:00:22;;;;;;;1.80;0.80;;;21.60;99.90;;;;;;5074893;28;21080;-55
2023/06/20 06:02:49;;;;;;;1.53;0.80;;;21.60;99.90;;;;;;5076224;28;20778;-54
2023/06/20 06:05:16;;;;;;;1.30;0.80;;;21.60;99.90;;;;;;5074398;28;20446;-56
2023/06/20 06:07:43;;;;;;;1.70;0.90;;;21.70;99.90;;;;;;5072825;28;20878;-54
2023/06/20 06:10:11;;;;;;;1.10;0.80;;;21.80;99.90;;;;;;5072760;28;20423;-52
2023/06/20 06:12:40;;;;;;;1.80;0.80;;;21.70;99.90;;;;;;5073915;28;20847;-50
2023/06/20 06:15:09;;;;;;;1.40;0.80;;;22.00;99.90;;;;;;5074124;28;20705;-55
2023/06/20 06:17:36;;;;;;;1.70;0.90;;;22.00;99.90;;;;;;5074294;28;20839;-57
2023/06/20 06:20:07;;;;;;;1.15;0.70;;;22.10;99.90;;;;;;5075082;28;20431;-58
2023/06/20 06:22:34;;;;;;;1.10;0.85;;;22.10;99.90;;;;;;5073549;28;20447;-57
2023/06/20 06:25:01;;;;;;;1.40;0.90;;;22.30;99.90;;;;;;5073169;28;20420;-57
2023/06/20 06:27:28;;;;;;;1.60;1.00;;;22.30;99.90;;;;;;5072720;28;20450;-59
2023/06/20 06:29:57;;;;;;;2.10;0.90;;;22.40;99.90;;;;;;5074011;28;20431;-59
2023/06/20 06:32:25;;;;;;;1.10;0.80;;;22.40;99.90;;;;;;5072577;28;20455;-59
2023/06/20 06:34:53;;;;;;;1.70;0.80;;;22.40;99.90;;;;;;5070773;28;20870;-58
2023/06/20 06:37:20;;;;;;;2.10;1.00;;;22.40;99.90;;;;;;5072738;28;20427;-58
2023/06/20 06:39:47;;;;;;;1.95;0.93;;;22.50;99.90;;;;;;5073735;28;20419;-59
2023/06/20 06:42:14;;;;;;;2.00;0.90;;;22.50;99.90;;;;;;5073194;28;20442;-59
2023/06/20 06:44:41;;;;;;;1.27;0.90;;;22.60;99.90;;;;;;5072306;28;20435;-59
2023/06/20 06:47:10;;;;;;;1.10;0.90;;;22.70;99.90;;;;;;5069664;28;20865;-59
2023/06/20 06:49:37;;;;;;;2.10;1.00;;;22.70;99.90;;;;;;5069340;28;21020;-59
2023/06/20 06:52:04;;;;;;;1.10;0.90;;;22.70;99.90;;;;;;5072116;28;20921;-59
2023/06/20 06:54:31;;;;;;;2.20;0.90;;;22.80;99.90;;;;;;5072298;28;20466;-59
2023/06/20 06:56:58;;;;;;;1.70;0.90;;;22.80;99.90;;;;;;5071682;28;20427;-60
2023/06/20 06:59:25;;;;;;;1.10;0.90;;;22.90;99.90;;;;;;5071372;28;20435;-59
2023/06/20 07:01:52;;;;;;;1.75;0.90;;;23.00;99.90;;;;;;5071574;28;20485;-59
2023/06/20 07:04:21;;;;;;;1.52;0.90;;;23.10;99.90;;;;;;5072680;28;20423;-57
2023/06/20 07:06:48;;;;;;;1.52;0.93;;;23.20;99.90;;;;;;5073432;28;20862;-58
2023/06/20 07:09:15;;;;;;;1.70;1.00;;;23.20;99.90;;;;;;5073875;28;20847;-58
2023/06/20 07:11:42;;;;;;;1.80;1.00;;;23.20;99.90;;;;;;5073706;28;20767;-58
2023/06/20 07:14:09;;;;;;;1.40;1.00;;;23.30;99.90;;;;;;5073083;28;20846;-58
2023/06/20 07:16:36;;;;;;;1.60;1.00;;;23.40;99.90;;;;;;5073411;28;20428;-58
2023/06/20 07:19:03;;;;;;;1.80;1.00;;;23.40;99.90;;;;;;5073651;28;20419;-57
2023/06/20 07:21:32;;;;;;;1.20;1.00;;;23.50;99.90;;;;;;5073291;28;20636;-58
2023/06/20 07:23:59;;;;;;;2.42;1.00;;;23.50;99.90;;;;;;5074088;28;20435;-57
2023/06/20 07:26:26;;;;;;;1.42;0.90;;;23.70;99.90;;;;;;5073634;28;20465;-58
2023/06/20 07:28:53;;;;;;;1.77;1.00;;;23.70;99.90;;;;;;5073205;28;20527;-58
2023/06/20 07:31:20;;;;;;;2.13;1.00;;;23.80;99.90;;;;;;5071229;28;20412;-57
2023/06/20 07:33:48;;;;;;;2.30;0.90;;;23.90;99.90;;;;;;5070466;28;20822;-56
2023/06/20 07:36:15;;;;;;;2.30;1.00;;;24.00;99.90;;;;;;5070401;28;20442;-57
2023/06/20 07:38:43;;;;;;;2.50;1.00;;;24.10;99.90;;;;;;5071076;28;20538;-57
2023/06/20 07:41:10;;;;;;;2.93;1.00;;;24.20;99.90;;;;;;5073077;28;20928;-57
2023/06/20 07:43:37;;;;;;;2.50;1.00;;;24.30;99.90;;;;;;5073816;28;20431;-58
2023/06/20 07:46:04;;;;;;;2.40;1.00;;;24.30;99.90;;;;;;5073484;28;20416;-57
2023/06/20 07:48:31;;;;;;;1.80;1.00;;;24.50;99.90;;;;;;5071283;28;20423;-55
2023/06/20 07:50:58;;;;;;;3.05;1.10;;;24.50;99.90;;;;;;5071809;28;20459;-55
2023/06/20 07:53:25;;;;;;;2.33;1.00;;;24.40;99.90;;;;;;5073017;28;20431;-57
2023/06/20 07:55:55;;;;;;;2.10;1.00;;;24.40;99.90;;;;;;5071707;28;20423;-56
2023/06/20 07:58:22;;;;;;;2.35;1.10;;;24.30;99.90;;;;;;5071660;28;20477;-57
2023/06/20 08:00:49;;;;;;;1.45;1.00;;;24.40;99.90;;;;;;5070718;28;20411;-56
2023/06/20 08:03:21;;;;;;;2.45;1.10;;;24.50;99.90;;;;;;5072483;28;20434;-57
2023/06/20 08:05:48;;;;;;;1.80;1.10;;;24.60;99.90;;;;;;5069609;28;20488;-57
2023/06/20 08:08:15;;;;;;;1.52;1.30;;;24.80;99.90;;;;;;5070243;28;20507;-57
2023/06/20 08:10:42;;;;;;;1.85;1.20;;;24.90;99.90;;;;;;5071160;28;20913;-57
2023/06/20 08:13:10;;;;;;;2.40;1.20;;;25.00;99.90;;;;;;5071654;28;20426;-58
2023/06/20 08:15:37;;;;;;;1.35;1.08;;;25.00;99.90;;;;;;5070381;28;20431;-58
2023/06/20 08:18:04;;;;;;;1.50;1.00;;;25.10;99.90;;;;;;5068783;28;20709;-59
2023/06/20 08:20:31;;;;;;;2.53;1.10;;;25.20;99.90;;;;;;5068680;28;20438;-59
2023/06/20 08:22:58;;;;;;;1.50;1.20;;;25.30;99.90;;;;;;5069360;28;20427;-58
2023/06/20 08:25:26;;;;;;;2.30;1.00;;;25.50;99.90;;;;;;5068901;28;20489;-59
2023/06/20 08:27:53;;;;;;;2.50;1.40;;;25.60;99.90;;;;;;5069809;28;20434;-59
2023/06/20 08:30:21;;;;;;;1.33;1.20;;;25.60;99.90;;;;;;5067241;28;20438;-59
2023/06/20 08:32:48;;;;;;;1.60;1.30;;;25.70;99.90;;;;;;5067693;28;20435;-59
2023/06/20 08:35:16;;;;;;;1.80;1.00;;;25.80;99.90;;;;;;5068423;28;20432;-58
2023/06/20 08:37:43;;;;;;;1.60;1.10;;;25.70;99.90;;;;;;5069252;28;20427;-57
2023/06/20 08:40:14;;;;;;;1.73;1.20;;;25.70;99.90;;;;;;5070234;28;20793;-59
2023/06/20 08:42:43;;;;;;;1.90;1.30;;;25.80;99.90;;;;;;5068786;28;20432;-59
2023/06/20 08:45:11;;;;;;;2.10;1.20;;;25.80;99.90;;;;;;5068994;28;20443;-58
2023/06/20 08:47:40;;;;;;;1.88;1.20;;;25.80;99.90;;;;;;5069770;28;20431;-59
2023/06/20 08:50:08;;;;;;;1.43;1.20;;;25.90;99.90;;;;;;5070768;28;20435;-58
2023/06/20 08:52:44;;;;;;;2.30;1.10;;;25.90;99.90;;;;;;5070973;28;20419;-59
2023/06/20 08:55:11;;;;;;;2.10;1.20;;;25.90;99.90;;;;;;5071636;28;20419;-57
2023/06/20 08:57:38;;;;;;;1.80;1.20;;;25.90;99.90;;;;;;5072154;28;20611;-57
2023/06/20 09:00:08;;;;;;;1.93;1.30;;;25.90;99.90;;;;;;5071269;28;20427;-58
2023/06/20 09:02:35;;;;;;;1.58;1.23;;;26.00;99.90;;;;;;5071682;28;20518;-57
2023/06/20 09:05:04;;;;;;;2.00;1.20;;;26.10;99.90;;;;;;5077008;28;20431;-58
2023/06/20 09:07:37;;;;;;;1.98;1.20;;;26.20;99.90;;;;;;5074810;28;20910;-58
2023/06/20 09:10:05;;;;;;;1.77;1.30;;;26.30;99.90;;;;;;5076707;28;20482;-58
2023/06/20 09:12:49;;;;;;;1.52;1.20;;;26.40;99.90;;;;;;5075071;28;20743;-58
2023/06/20 09:15:18;;;;;;;1.80;1.10;;;26.60;99.90;;;;;;5075879;28;20423;-58
2023/06/20 09:17:45;;;;;;;1.40;1.10;;;26.50;99.90;;;;;;5076108;28;20857;-59
2023/06/20 09:20:15;;;;;;;3.73;1.13;;;26.60;99.90;;;;;;5075474;28;20432;-59
2023/06/20 09:22:43;;;;;;;2.25;1.20;;;26.60;99.90;;;;;;5074600;28;20950;-59
2023/06/20 09:25:11;;;;;;;2.22;1.50;;;26.70;99.90;;;;;;5072790;28;20484;-58
2023/06/20 09:27:41;;;;;;;1.90;1.30;;;26.80;99.90;;;;;;5070843;28;20431;-60
2023/06/20 09:30:09;;;;;;;1.63;1.20;;;27.00;99.90;;;;;;5072077;28;20431;-61
2023/06/20 09:32:37;;;;;;;2.80;1.20;;;26.90;99.90;;;;;;5072787;28;20488;-59
2023/06/20 09:35:05;;;;;;;1.80;1.30;;;26.90;99.90;;;;;;5070223;28;20442;-58
2023/06/20 09:37:41;;;;;;;2.00;1.20;;;27.10;99.90;;;;;;5072204;28;20434;-59
2023/06/20 09:40:09;;;;;;;1.70;1.60;;;27.20;99.90;;;;;;5072585;28;20434;-59
2023/06/20 09:42:37;;;;;;;2.97;1.30;;;27.40;99.90;;;;;;5073283;28;20823;-59
2023/06/20 09:45:05;;;;;;;9.40;2.20;;;27.70;99.90;;;;;;5072059;28;20427;-59
2023/06/20 09:47:33;;;;;;;1.90;1.70;;;27.80;99.90;;;;;;5073973;28;20489;-58
2023/06/20 09:50:03;;;;;;;2.70;1.20;;;28.20;99.90;;;;;;5073094;28;20434;-59
2023/06/20 09:52:37;;;;;;;2.80;1.30;;;28.40;99.90;;;;;;5073588;28;20491;-59
2023/06/20 09:55:10;;;;;;;2.10;1.10;;;28.60;99.90;;;;;;5072621;28;20732;-59
2023/06/20 09:57:41;;;;;;;2.80;1.20;;;28.30;99.90;;;;;;5071573;28;20845;-62
2023/06/20 10:00:14;;;;;;;1.90;1.10;;;28.30;99.90;;;;;;5069725;28;20459;-59
2023/06/20 10:02:44;;;;;;;1.65;1.10;;;28.40;99.90;;;;;;5069994;28;20784;-59
2023/06/20 10:05:13;;;;;;;1.70;1.10;;;28.30;99.90;;;;;;5072474;28;20431;-59
2023/06/20 10:07:42;;;;;;;1.80;1.00;;;28.30;99.90;;;;;;5073555;28;20431;-59
2023/06/20 10:10:11;;;;;;;2.28;1.30;;;28.40;99.90;;;;;;5072554;28;20497;-59
2023/06/20 10:12:39;;;;;;;1.50;1.08;;;28.50;99.90;;;;;;5067993;28;20427;-60
2023/06/20 10:15:08;;;;;;;2.30;1.30;;;28.70;99.90;;;;;;5073783;28;20450;-61
2023/06/20 10:17:39;;;;;;;1.90;1.33;;;28.90;99.90;;;;;;5071893;28;20435;-61
2023/06/20 10:20:08;;;;;;;2.40;1.17;;;29.20;99.90;;;;;;5070668;28;20419;-61
2023/06/20 10:22:37;;;;;;;1.90;1.10;;;29.50;99.90;;;;;;5072652;28;20997;-61
2023/06/20 10:25:14;;;;;;;1.42;1.10;;;29.70;99.90;;;;;;5073613;28;20431;-61
2023/06/20 10:27:42;;;;;;;1.35;1.00;;;29.90;99.90;;;;;;5073988;28;20442;-60
2023/06/20 10:30:12;;;;;;;2.40;1.13;;;30.00;99.90;;;;;;5072126;28;20927;-61
2023/06/20 10:33:08;;;;;;;2.00;1.10;;;29.90;99.90;;;;;;5072224;28;20430;-61
2023/06/20 10:35:36;;;;;;;1.70;1.10;;;29.90;99.90;;;;;;5072563;28;20621;-61
2023/06/20 10:38:10;;;;;;;1.30;1.00;;;30.10;99.90;;;;;;5082579;28;20514;-61
2023/06/20 10:40:39;;;;;;;1.40;1.00;;;30.30;99.90;;;;;;5093297;28;20418;-61
2023/06/20 10:43:07;;;;;;;1.70;1.15;;;30.60;99.90;;;;;;5074865;28;20439;-61
2023/06/20 10:45:35;;;;;;;1.60;0.90;;;30.80;99.90;;;;;;5071181;28;20534;-61
2023/06/20 10:48:03;;;;;;;1.42;1.00;;;30.90;97.50;;;;;;5072686;28;20443;-60
2023/06/20 10:50:30;;;;;;;1.73;1.10;;;30.70;96.50;;;;;;5072688;28;20926;-60
2023/06/20 10:53:02;;;;;;;1.40;1.10;;;30.80;95.70;;;;;;5078913;28;20423;-60
2023/06/20 10:55:29;;;;;;;1.50;1.00;;;30.90;94.50;;;;;;5075986;28;20430;-61
2023/06/20 10:57:58;;;;;;;1.95;1.02;;;31.00;92.00;;;;;;5072473;28;20434;-60
2023/06/20 11:00:25;;;;;;;2.17;1.20;;;31.10;91.80;;;;;;5070640;28;20598;-60
2023/06/20 11:02:53;;;;;;;1.20;0.90;;;31.10;90.00;;;;;;5070465;28;20443;-60
2023/06/20 11:05:26;;;;;;;1.10;0.90;;;31.30;90.50;;;;;;5069746;28;20459;-60
2023/06/20 11:07:59;;;;;;;1.20;0.90;;;31.60;83.00;;;;;;5071203;28;20431;-61
2023/06/20 11:10:31;;;;;;;2.30;1.00;;;32.00;82.70;;;;;;5068111;28;20523;-60
2023/06/20 11:13:00;;;;;;;1.52;1.00;;;32.40;82.60;;;;;;5072158;28;20988;-61
2023/06/20 11:15:29;;;;;;;1.50;1.00;;;32.50;78.00;;;;;;5070652;28;20447;-61
2023/06/20 11:17:57;;;;;;;1.20;1.10;;;32.40;77.80;;;;;;5069200;28;20639;-62
2023/06/20 11:20:25;;;;;;;1.50;1.00;;;32.60;75.70;;;;;;5070895;28;20472;-61
2023/06/20 11:22:54;;;;;;;2.63;1.08;;;33.00;75.30;;;;;;5068576;28;20488;-60
2023/06/20 11:25:23;;;;;;;2.33;1.00;;;33.00;73.20;;;;;;5071014;28;20833;-59
2023/06/20 11:27:50;;;;;;;1.70;1.00;;;33.00;68.10;;;;;;5071859;28;20458;-61
2023/06/20 11:30:25;;;;;;;1.50;1.10;;;32.80;66.70;;;;;;5072874;28;20496;-60
2023/06/20 11:33:00;;;;;;;1.20;1.00;;;32.50;68.00;;;;;;5072219;28;20428;-61
2023/06/20 11:35:49;;;;;;;1.30;1.00;;;32.50;68.80;;;;;;5071031;28;20732;-60
2023/06/20 11:38:19;;;;;;;1.60;1.00;;;32.60;66.90;;;;;;5071736;28;20944;-61
2023/06/20 11:40:47;;;;;;;3.30;1.00;;;33.10;67.40;;;;;;5071686;28;20419;-61
2023/06/20 11:43:22;;;;;;;1.20;0.90;;;33.10;66.10;;;;;;5071989;28;20771;-60
2023/06/20 11:45:50;;;;;;;3.70;1.10;;;32.80;68.30;;;;;;5073185;28;20431;-60
2023/06/20 11:48:19;;;;;;;1.90;1.10;;;33.00;67.80;;;;;;5070251;28;20436;-59
2023/06/20 11:50:55;;;;;;;2.40;1.10;;;33.20;65.40;;;;;;5071213;28;20427;-60
2023/06/20 11:53:25;;;;;;;1.50;1.20;;;33.00;66.90;;;;;;5070131;28;20517;-61
2023/06/20 11:55:54;;;;;;;1.80;1.00;;;33.20;65.00;;;;;;5071540;28;20505;-61
2023/06/20 11:58:21;;;;;;;2.33;1.10;;;33.30;65.60;;;;;;5071108;28;20426;-61
2023/06/20 12:01:02;;;;;;;1.60;1.20;;;33.00;65.20;;;;;;5070130;28;20466;-61
2023/06/20 12:03:29;;;;;;;1.50;1.00;;;33.00;64.60;;;;;;5070316;28;20945;-60
2023/06/20 12:05:57;;;;;;;1.70;1.20;;;33.30;64.60;;;;;;5072025;28;20442;-60
2023/06/20 12:08:25;;;;;;;1.08;0.98;;;33.00;63.80;;;;;;5070989;28;20513;-61
2023/06/20 12:11:00;;;;;;;2.10;1.00;;;33.00;66.30;;;;;;5072068;28;20416;-61
2023/06/20 12:13:28;;;;;;;3.00;1.30;;;33.70;66.50;;;;;;5069117;28;20423;-61
2023/06/20 12:15:57;;;;;;;2.10;1.10;;;33.50;63.90;;;;;;5070916;28;20582;-61
2023/06/20 12:18:24;;;;;;;2.60;1.00;;;33.30;63.10;;;;;;5069730;28;20427;-61
2023/06/20 12:20:51;;;;;;;1.60;1.20;;;33.50;63.70;;;;;;5070740;28;20431;-61
2023/06/20 12:23:19;;;;;;;1.75;1.10;;;34.20;62.40;;;;;;5070692;28;20431;-61
2023/06/20 12:25:46;;;;;;;2.20;1.00;;;34.60;59.80;;;;;;5069514;28;20920;-60
2023/06/20 12:28:14;;;;;;;3.25;1.27;;;34.30;59.10;;;;;;5071228;28;20485;-61
2023/06/20 12:30:41;;;;;;;2.50;1.20;;;34.20;59.50;;;;;;5070112;28;20867;-61
2023/06/20 12:33:10;;;;;;;2.30;1.20;;;34.20;58.70;;;;;;5070206;28;20503;-61
2023/06/20 12:35:38;;;;;;;3.35;1.10;;;34.20;58.90;;;;;;5071340;28;20431;-62
2023/06/20 12:38:05;;;;;;;1.70;1.10;;;34.40;57.90;;;;;;5070764;28;20882;-61
2023/06/20 12:40:32;;;;;;;1.98;1.23;;;34.90;57.30;;;;;;5070527;28;20415;-61
2023/06/20 12:42:59;;;;;;;4.13;1.10;;;34.70;57.00;;;;;;5070632;28;20435;-61
2023/06/20 12:45:27;;;;;;;1.90;1.10;;;34.60;57.40;;;;;;5070708;28;20436;-61
2023/06/20 12:47:54;;;;;;;3.28;1.30;;;34.60;56.80;;;;;;5072298;28;20518;-62
2023/06/20 12:50:22;;;;;;;1.70;1.30;;;34.70;57.10;;;;;;5072324;28;20439;-61
2023/06/20 12:52:49;;;;;;;2.72;1.83;;;34.70;56.40;;;;;;5070277;28;20736;-61
2023/06/20 12:55:16;;;;;;;2.08;1.10;;;34.50;57.00;;;;;;5071793;28;20855;-61